createdAt,value
2023-01-29T00:00:10.519Z,102466.19
2023-01-29T00:02:41.163Z,102464.16
2023-01-29T00:05:25.956Z,102461.44
2023-01-29T00:07:56.188Z,102464.34
2023-01-29T00:10:25.820Z,102477.31
2023-01-29T00:12:53.867Z,102466.09
2023-01-29T00:15:21.547Z,102456.63
2023-01-29T00:17:49.168Z,102457.47
2023-01-29T00:20:17.899Z,102445.31
2023-01-29T00:22:45.687Z,102451.44
2023-01-29T00:25:19.723Z,102443.59
2023-01-29T00:27:47.648Z,102447.06
2023-01-29T00:30:19.347Z,102425.28
2023-01-29T00:32:47.256Z,102431.28
2023-01-29T00:35:14.973Z,102410.41
2023-01-29T00:37:43.047Z,102418.34
2023-01-29T00:40:12.196Z,102419.22
2023-01-29T00:42:58.441Z,102405.34
2023-01-29T00:45:26.130Z,102412.28
2023-01-29T00:47:53.738Z,102420.97
2023-01-29T00:50:22.181Z,102406.00
2023-01-29T00:52:51.807Z,102417.44
2023-01-29T00:55:19.601Z,102424.50
2023-01-29T00:57:48.068Z,102422.78
2023-01-29T01:00:19.489Z,102414.94
2023-01-29T01:03:05.630Z,102419.25
2023-01-29T01:05:34.196Z,102427.94
2023-01-29T01:08:01.870Z,102429.66
2023-01-29T01:10:33.105Z,102428.81
2023-01-29T01:13:05.527Z,102421.47
2023-01-29T01:15:40.065Z,102427.44
2023-01-29T01:18:07.867Z,102431.09
2023-01-29T01:20:36.521Z,102425.25
2023-01-29T01:23:04.449Z,102438.22
2023-01-29T01:25:32.615Z,102414.00
2023-01-29T01:28:03.383Z,102411.44
2023-01-29T01:30:31.034Z,102415.81
2023-01-29T01:32:59.641Z,102409.75
2023-01-29T01:35:27.279Z,102399.06
2023-01-29T01:37:54.855Z,102436.53
2023-01-29T01:40:25.474Z,102429.59
2023-01-29T01:42:59.501Z,102428.69
2023-01-29T01:45:35.734Z,102439.09
2023-01-29T01:48:17.223Z,102424.44
2023-01-29T01:50:58.689Z,102433.97
2023-01-29T01:53:37.405Z,102427.88
2023-01-29T01:56:10.568Z,102427.94
2023-01-29T01:58:43.850Z,102418.38
2023-01-29T02:01:12.838Z,102411.44
2023-01-29T02:04:14.591Z,102406.22
2023-01-29T02:07:02.388Z,102401.91
2023-01-29T02:09:39.585Z,102404.47
2023-01-29T02:12:11.979Z,102386.28
2023-01-29T02:14:43.450Z,102388.91
2023-01-29T02:17:20.032Z,102387.03
2023-01-29T02:20:27.090Z,102384.16
2023-01-29T02:23:40.860Z,102385.75
2023-01-29T02:26:37.527Z,102386.94
2023-01-29T02:29:25.254Z,102384.47
2023-01-29T02:32:22.919Z,102377.25
2023-01-29T02:35:29.268Z,102378.81
2023-01-29T02:38:27.245Z,102388.41
2023-01-29T02:41:09.900Z,102385.91
2023-01-29T02:43:54.019Z,102388.34
2023-01-29T02:46:39.063Z,102373.94
2023-01-29T02:49:30.448Z,102371.94
2023-01-29T02:52:03.941Z,102373.00
2023-01-29T02:54:55.502Z,102385.72
2023-01-29T02:57:29.308Z,102377.56
2023-01-29T03:00:26.339Z,102391.53
2023-01-29T03:03:13.429Z,102386.22
2023-01-29T03:05:54.900Z,102381.00
2023-01-29T03:08:45.889Z,102388.03
2023-01-29T03:11:17.755Z,102389.75
2023-01-29T03:13:53.183Z,102398.44
2023-01-29T03:16:51.433Z,102388.00
2023-01-29T03:19:41.908Z,102384.56
2023-01-29T03:22:21.879Z,102378.47
2023-01-29T03:25:18.141Z,102381.97
2023-01-29T03:28:15.685Z,102374.13
2023-01-29T03:31:12.989Z,102363.72
2023-01-29T03:33:54.263Z,102361.06
2023-01-29T03:37:01.235Z,102364.56
2023-01-29T03:39:29.755Z,102343.63
2023-01-29T03:42:35.012Z,102345.47
2023-01-29T03:45:14.836Z,102348.94
2023-01-29T03:48:04.090Z,102356.75
2023-01-29T03:51:17.256Z,102357.66
2023-01-29T03:54:07.884Z,102351.53
2023-01-29T03:56:50.476Z,102340.19
2023-01-29T04:00:14.867Z,102334.22
2023-01-29T04:03:21.819Z,102323.78
2023-01-29T04:06:16.680Z,102303.75
2023-01-29T04:09:04.283Z,102298.44
2023-01-29T04:11:36.242Z,102279.38
2023-01-29T04:14:06.176Z,102289.91
2023-01-29T04:16:41.243Z,102276.78
2023-01-29T04:19:15.109Z,102268.22
2023-01-29T04:21:45.279Z,102252.66
2023-01-29T04:24:14.184Z,102258.72
2023-01-29T04:26:54.823Z,102251.72
2023-01-29T04:29:47.314Z,102247.44
2023-01-29T04:32:38.773Z,102251.75
2023-01-29T04:35:30.393Z,102268.25
2023-01-29T04:38:09.576Z,102257.81
2023-01-29T04:40:51.075Z,102268.22
2023-01-29T04:43:55.345Z,102261.31
2023-01-29T04:47:07.355Z,102258.72
2023-01-29T04:49:55.558Z,102247.44
2023-01-29T04:52:59.011Z,102245.69
2023-01-29T04:55:40.357Z,102247.44
2023-01-29T04:58:28.397Z,102237.03
2023-01-29T05:00:58.076Z,102234.38
2023-01-29T05:03:27.268Z,102250.06
2023-01-29T05:05:57.233Z,102253.47
2023-01-29T05:08:27.228Z,102252.59
2023-01-29T05:10:57.012Z,102254.31
2023-01-29T05:13:26.702Z,102259.47
2023-01-29T05:16:17.646Z,102266.47
2023-01-29T05:18:45.941Z,102261.25
2023-01-29T05:21:13.751Z,102254.38
2023-01-29T05:23:53.038Z,102258.72
2023-01-29T05:26:39.770Z,102254.31
2023-01-29T05:29:07.551Z,102267.38
2023-01-29T05:31:35.145Z,102265.66
2023-01-29T05:34:02.773Z,102262.19
2023-01-29T05:36:30.656Z,102260.41
2023-01-29T05:38:59.165Z,102258.66
2023-01-29T05:41:26.750Z,102275.16
2023-01-29T05:43:54.384Z,102271.72
2023-01-29T05:46:21.996Z,102276.91
2023-01-29T05:48:51.955Z,102281.94
2023-01-29T05:51:19.585Z,102286.28
2023-01-29T05:53:47.143Z,102269.00
2023-01-29T05:56:14.727Z,102279.31
2023-01-29T05:58:42.413Z,102282.91
2023-01-29T06:01:19.847Z,102283.88
2023-01-29T06:03:47.843Z,102294.25
2023-01-29T06:06:16.146Z,102299.50
2023-01-29T06:08:44.035Z,102298.63
2023-01-29T06:11:13.812Z,102301.19
2023-01-29T06:13:41.624Z,102299.47
2023-01-29T06:16:11.149Z,102297.72
2023-01-29T06:18:39.910Z,102307.28
2023-01-29T06:21:11.076Z,102299.47
2023-01-29T06:23:39.452Z,102310.78
2023-01-29T06:26:13.195Z,102304.69
2023-01-29T06:28:41.680Z,102289.03
2023-01-29T06:31:37.717Z,102299.47
2023-01-29T06:33:58.196Z,102296.88
2023-01-29T06:36:25.766Z,102284.75
2023-01-29T06:38:53.475Z,102283.00
2023-01-29T06:41:25.201Z,102301.22
2023-01-29T06:43:53.043Z,102299.47
2023-01-29T06:46:21.045Z,102275.97
2023-01-29T06:48:48.619Z,102287.19
2023-01-29T06:51:16.272Z,102287.34
2023-01-29T06:53:45.979Z,102283.00
2023-01-29T06:56:14.327Z,102292.56
2023-01-29T06:58:43.458Z,102285.47
2023-01-29T07:01:22.155Z,102289.53
2023-01-29T07:03:57.027Z,102280.41
2023-01-29T07:06:31.410Z,102289.06
2023-01-29T07:08:59.004Z,102289.06
2023-01-29T07:11:26.568Z,102290.84
2023-01-29T07:13:54.162Z,102289.75
2023-01-29T07:16:21.881Z,102282.13
2023-01-29T07:18:49.501Z,102303.81
2023-01-29T07:21:17.157Z,102300.38
2023-01-29T07:23:44.800Z,102280.41
2023-01-29T07:26:12.568Z,102278.63
2023-01-29T07:28:40.670Z,102258.69
2023-01-29T07:31:11.430Z,102296.81
2023-01-29T07:33:39.142Z,102292.56
2023-01-29T07:36:11.612Z,102301.22
2023-01-29T07:38:39.239Z,102276.91
2023-01-29T07:41:07.176Z,102282.91
2023-01-29T07:43:34.788Z,102287.31
2023-01-29T07:46:04.696Z,102281.25
2023-01-29T07:48:32.757Z,102284.75
2023-01-29T07:51:00.768Z,102278.63
2023-01-29T07:53:29.082Z,102253.38
2023-01-29T07:55:57.408Z,102245.69
2023-01-29T07:58:25.195Z,102263.81
2023-01-29T08:00:52.812Z,102264.66
2023-01-29T08:03:20.794Z,102276.88
2023-01-29T08:05:48.755Z,102269.94
2023-01-29T08:08:16.681Z,102273.38
2023-01-29T08:10:44.259Z,102257.72
2023-01-29T08:13:14.781Z,102251.56
2023-01-29T08:15:46.051Z,102260.88
2023-01-29T08:18:14.808Z,102251.38
2023-01-29T08:20:42.613Z,102255.91
2023-01-29T08:23:16.420Z,102249.63
2023-01-29T08:25:44.171Z,102235.91
2023-01-29T08:28:12.347Z,102238.41
2023-01-29T08:30:40.425Z,102230.69
2023-01-29T08:33:08.049Z,102239.59
2023-01-29T08:35:36.162Z,102238.69
2023-01-29T08:38:05.377Z,102229.19
2023-01-29T08:40:34.996Z,102240.22
2023-01-29T08:43:09.149Z,102235.88
2023-01-29T08:45:40.991Z,102234.22
2023-01-29T08:48:10.124Z,102242.16
2023-01-29T08:50:38.323Z,102242.00
2023-01-29T08:53:08.701Z,102250.63
2023-01-29T08:55:39.025Z,102236.06
2023-01-29T08:58:08.751Z,102230.84
2023-01-29T09:00:36.582Z,102234.41
2023-01-29T09:03:04.979Z,102231.59
2023-01-29T09:05:32.545Z,102235.09
2023-01-29T09:08:00.447Z,102226.22
2023-01-29T09:10:28.111Z,102235.22
2023-01-29T09:12:55.725Z,102233.44
2023-01-29T09:15:23.874Z,102232.22
2023-01-29T09:17:51.780Z,102226.28
2023-01-29T09:20:19.869Z,102216.84
2023-01-29T09:22:47.660Z,102216.78
2023-01-29T09:27:39.311Z,102209.09
2023-01-29T09:30:07.730Z,102211.59
2023-01-29T09:35:24.051Z,102208.97
2023-01-29T09:37:52.538Z,102198.00
2023-01-29T09:40:40.643Z,102196.91
2023-01-29T09:43:18.627Z,102191.91
2023-01-29T09:46:12.900Z,102210.88
2023-01-29T09:48:41.344Z,102197.63
2023-01-29T09:51:28.823Z,102213.84
2023-01-29T09:54:24.408Z,102209.09
2023-01-29T09:56:57.068Z,102192.06
2023-01-29T09:59:29.886Z,102165.06
2023-01-29T10:02:15.556Z,102188.41
2023-01-29T10:05:38.757Z,102172.56
2023-01-29T10:08:48.062Z,102167.81
2023-01-29T10:12:01.947Z,102167.03
2023-01-29T10:14:56.433Z,102166.13
2023-01-29T10:17:52.422Z,102158.50
2023-01-29T10:21:19.294Z,102155.88
2023-01-29T10:24:49.185Z,102150.78
2023-01-29T10:27:18.859Z,102163.56
2023-01-29T10:29:51.755Z,102154.66
2023-01-29T10:32:24.106Z,102155.66
2023-01-29T10:35:02.519Z,102163.28
2023-01-29T10:37:43.665Z,102159.88
2023-01-29T10:40:41.590Z,102169.38
2023-01-29T10:43:29.606Z,102147.44
2023-01-29T10:46:38.097Z,102132.38
2023-01-29T10:49:45.167Z,102155.66
2023-01-29T10:52:46.594Z,102138.75
2023-01-29T10:55:34.980Z,102142.47
2023-01-29T10:58:30.956Z,102144.00
2023-01-29T11:00:59.007Z,102114.00
2023-01-29T11:03:33.268Z,102111.97
2023-01-29T11:06:32.040Z,102113.34
2023-01-29T11:09:29.213Z,102111.38
2023-01-29T11:12:13.302Z,102120.72
2023-01-29T11:14:56.792Z,102107.13
2023-01-29T11:17:26.166Z,102099.66
2023-01-29T11:19:55.838Z,102102.59
2023-01-29T11:22:28.961Z,102089.44
2023-01-29T11:25:17.173Z,102093.25
2023-01-29T11:27:52.805Z,102078.19
2023-01-29T11:30:29.299Z,102095.16
2023-01-29T11:33:23.757Z,102080.84
2023-01-29T11:35:52.709Z,102067.34
2023-01-29T11:38:29.063Z,102056.63
2023-01-29T11:41:22.364Z,102086.28
2023-01-29T11:43:50.920Z,102082.56
2023-01-29T11:46:18.562Z,102046.28
2023-01-29T11:48:51.486Z,102035.88
2023-01-29T11:51:29.085Z,102046.19
2023-01-29T11:54:04.142Z,102043.31
2023-01-29T11:56:41.385Z,102052.28
2023-01-29T11:59:37.266Z,102044.34
2023-01-29T12:02:34.143Z,102029.66
2023-01-29T12:05:26.299Z,102014.06
2023-01-29T12:08:02.102Z,102021.75
2023-01-29T12:10:37.006Z,102010.09
2023-01-29T12:13:19.760Z,102011.41
2023-01-29T12:15:49.293Z,102002.47
2023-01-29T12:18:32.804Z,101987.41
2023-01-29T12:21:05.019Z,101981.94
2023-01-29T12:23:48.001Z,101973.59
2023-01-29T12:26:24.272Z,101955.09
2023-01-29T12:29:22.964Z,101989.22
2023-01-29T12:32:06.170Z,101984.75
2023-01-29T12:34:43.518Z,101982.91
2023-01-29T12:37:38.041Z,101983.34
2023-01-29T12:40:18.842Z,101980.78
2023-01-29T12:42:52.008Z,101974.03
2023-01-29T12:45:24.782Z,101986.56
2023-01-29T12:47:57.456Z,101979.41
2023-01-29T12:50:32.917Z,101977.00
2023-01-29T12:53:16.462Z,101977.00
2023-01-29T12:55:55.362Z,101997.13
2023-01-29T12:58:32.288Z,101969.22
2023-01-29T13:01:27.205Z,101969.84
2023-01-29T13:04:14.956Z,101955.22
2023-01-29T13:06:49.595Z,101972.19
2023-01-29T13:09:26.883Z,101968.88
2023-01-29T13:12:01.786Z,101962.63
2023-01-29T13:15:21.910Z,101925.03
2023-01-29T13:17:56.488Z,101965.94
2023-01-29T13:20:31.987Z,101951.31
2023-01-29T13:23:18.953Z,101956.09
2023-01-29T13:25:52.097Z,101934.84
2023-01-29T13:28:24.279Z,101959.88
2023-01-29T13:31:36.868Z,101942.72
2023-01-29T13:34:33.908Z,101964.59
2023-01-29T13:37:38.010Z,101948.50
2023-01-29T13:40:08.443Z,101950.81
2023-01-29T13:42:55.510Z,101948.72
2023-01-29T13:45:53.590Z,101933.34
2023-01-29T13:48:28.783Z,101943.78
2023-01-29T13:51:00.523Z,101938.78
2023-01-29T13:53:33.274Z,101933.66
2023-01-29T13:56:35.284Z,101940.16
2023-01-29T13:59:06.077Z,101917.75
2023-01-29T14:01:48.400Z,101917.34
2023-01-29T14:04:18.794Z,101915.84
2023-01-29T14:06:52.416Z,101913.19
2023-01-29T14:09:49.388Z,101926.59
2023-01-29T14:12:23.176Z,101927.59
2023-01-29T14:14:56.711Z,101924.34
2023-01-29T14:17:26.914Z,101920.81
2023-01-29T14:20:19.100Z,101914.75
2023-01-29T14:22:56.492Z,101902.66
2023-01-29T14:25:40.878Z,101922.91
2023-01-29T14:28:21.075Z,101908.91
2023-01-29T14:30:49.807Z,101905.53
2023-01-29T14:33:39.835Z,101901.13
2023-01-29T14:36:15.924Z,101889.97
2023-01-29T14:38:51.824Z,101885.53
2023-01-29T14:41:32.377Z,101896.88
2023-01-29T14:44:56.440Z,101898.28
2023-01-29T14:47:32.841Z,101891.34
2023-01-29T14:50:22.365Z,101888.13
2023-01-29T14:52:53.998Z,101879.38
2023-01-29T14:55:38.326Z,101882.63
2023-01-29T14:58:12.702Z,101883.22
2023-01-29T15:00:45.200Z,101870.72
2023-01-29T15:03:49.731Z,101869.78
2023-01-29T15:06:35.548Z,101848.31
2023-01-29T15:09:36.508Z,101854.56
2023-01-29T15:12:23.686Z,101848.75
2023-01-29T15:15:19.352Z,101849.31
2023-01-29T15:18:04.919Z,101845.81
2023-01-29T15:20:36.579Z,101843.44
2023-01-29T15:23:23.476Z,101827.53
2023-01-29T15:25:55.079Z,101831.31
2023-01-29T15:28:23.155Z,101821.66
2023-01-29T15:30:59.233Z,101818.69
2023-01-29T15:33:28.229Z,101821.06
2023-01-29T15:36:07.407Z,101813.69
2023-01-29T15:38:35.984Z,101818.66
2023-01-29T15:41:17.299Z,101815.97
2023-01-29T15:43:49.175Z,101808.88
2023-01-29T15:46:25.544Z,101813.47
2023-01-29T15:48:57.103Z,101812.03
2023-01-29T15:51:27.250Z,101806.69
2023-01-29T15:53:59.687Z,101808.63
2023-01-29T15:56:40.875Z,101809.34
2023-01-29T15:59:21.653Z,101805.44
2023-01-29T16:01:49.519Z,101796.59
2023-01-29T16:04:23.895Z,101777.69
2023-01-29T16:06:54.209Z,101785.75
2023-01-29T16:09:25.288Z,101790.25
2023-01-29T16:11:57.344Z,101791.06
2023-01-29T16:14:26.590Z,101802.22
2023-01-29T16:16:55.435Z,101801.47
2023-01-29T16:19:29.391Z,101790.16
2023-01-29T16:22:02.236Z,101791.91
2023-01-29T16:24:34.418Z,101793.22
2023-01-29T16:27:14.836Z,101793.16
2023-01-29T16:29:42.637Z,101776.75
2023-01-29T16:32:13.686Z,101784.38
2023-01-29T16:34:45.115Z,101786.72
2023-01-29T16:37:46.374Z,101786.44
2023-01-29T16:40:27.176Z,101785.44
2023-01-29T16:43:45.401Z,101780.19
2023-01-29T16:46:37.421Z,101778.41
2023-01-29T16:49:37.576Z,101774.31
2023-01-29T16:52:34.697Z,101777.22
2023-01-29T16:55:25.212Z,101780.28
2023-01-29T16:57:55.335Z,101770.31
2023-01-29T17:00:30.920Z,101778.13
2023-01-29T17:03:05.453Z,101767.34
2023-01-29T17:05:36.969Z,101758.31
2023-01-29T17:08:06.186Z,101754.91
2023-01-29T17:10:34.037Z,101750.16
2023-01-29T17:13:09.334Z,101748.78
2023-01-29T17:15:46.543Z,101739.13
2023-01-29T17:18:21.915Z,101743.63
2023-01-29T17:20:50.831Z,101741.41
2023-01-29T17:23:19.277Z,101739.34
2023-01-29T17:25:47.942Z,101724.75
2023-01-29T17:28:17.707Z,101727.72
2023-01-29T17:30:56.612Z,101727.91
2023-01-29T17:33:32.893Z,101719.28
2023-01-29T17:36:00.580Z,101719.25
2023-01-29T17:38:28.248Z,101716.34
2023-01-29T17:41:04.241Z,101712.69
2023-01-29T17:43:32.062Z,101694.69
2023-01-29T17:45:59.683Z,101689.63
2023-01-29T17:48:29.497Z,101701.75
2023-01-29T17:51:01.932Z,101684.59
2023-01-29T17:53:44.165Z,101650.38
2023-01-29T17:56:27.425Z,101680.38
2023-01-29T17:58:55.164Z,101668.00
2023-01-29T18:01:22.789Z,101672.75
2023-01-29T18:03:50.422Z,101647.28
2023-01-29T18:06:28.477Z,101643.34
2023-01-29T18:08:56.799Z,101651.63
2023-01-29T18:11:24.841Z,101652.66
2023-01-29T18:13:52.641Z,101664.66
2023-01-29T18:16:24.439Z,101657.94
2023-01-29T18:18:52.850Z,101658.78
2023-01-29T18:21:20.600Z,101653.84
2023-01-29T18:23:48.181Z,101653.78
2023-01-29T18:26:16.897Z,101649.63
2023-01-29T18:28:45.082Z,101651.56
2023-01-29T18:31:14.351Z,101650.69
2023-01-29T18:33:42.284Z,101642.88
2023-01-29T18:36:09.893Z,101647.03
2023-01-29T18:38:37.493Z,101651.41
2023-01-29T18:41:10.809Z,101643.94
2023-01-29T18:43:40.089Z,101641.81
2023-01-29T18:46:09.323Z,101639.56
2023-01-29T18:48:37.202Z,101635.13
2023-01-29T18:51:05.862Z,101639.25
2023-01-29T18:53:33.472Z,101574.34
2023-01-29T18:56:04.706Z,101625.66
2023-01-29T18:58:37.887Z,101626.72
2023-01-29T19:01:09.797Z,101617.22
2023-01-29T19:03:41.909Z,101596.69
2023-01-29T19:06:11.742Z,101607.69
2023-01-29T19:08:40.798Z,101605.31
2023-01-29T19:11:09.005Z,101608.56
2023-01-29T19:13:37.880Z,101599.78
2023-01-29T19:16:13.442Z,101580.09
2023-01-29T19:18:41.334Z,101591.53
2023-01-29T19:21:12.819Z,101590.84
2023-01-29T19:23:42.664Z,101588.06
2023-01-29T19:26:11.394Z,101575.78
2023-01-29T19:28:39.570Z,101578.47
2023-01-29T19:31:07.894Z,101586.56
2023-01-29T19:33:35.636Z,101581.47
2023-01-29T19:36:03.479Z,101580.16
2023-01-29T19:38:33.480Z,101564.97
2023-01-29T19:41:01.090Z,101566.72
2023-01-29T19:43:30.634Z,101539.81
2023-01-29T19:46:00.913Z,101549.59
2023-01-29T19:48:29.049Z,101534.63
2023-01-29T19:51:08.316Z,101534.16
2023-01-29T19:53:43.859Z,101515.00
2023-01-29T19:56:15.137Z,101522.53
2023-01-29T19:58:42.949Z,101503.28
2023-01-29T20:01:20.347Z,101509.84
2023-01-29T20:03:49.360Z,101515.53
2023-01-29T20:06:21.989Z,101508.81
2023-01-29T20:08:49.771Z,101508.53
2023-01-29T20:11:21.486Z,101500.63
2023-01-29T20:13:51.101Z,101500.41
2023-01-29T20:16:19.417Z,101497.53
2023-01-29T20:18:47.219Z,101487.25
2023-01-29T20:21:22.617Z,101484.00
2023-01-29T20:23:51.542Z,101478.16
2023-01-29T20:26:20.328Z,101478.09
2023-01-29T20:28:48.439Z,101477.63
2023-01-29T20:31:16.879Z,101468.50
2023-01-29T20:33:44.724Z,101468.97
2023-01-29T20:36:14.572Z,101472.16
2023-01-29T20:38:42.337Z,101446.72
2023-01-29T20:41:15.583Z,101451.75
2023-01-29T20:43:45.121Z,101465.34
2023-01-29T20:46:13.342Z,101445.25
2023-01-29T20:48:41.977Z,101436.16
2023-01-29T20:51:16.784Z,101437.28
2023-01-29T20:53:46.609Z,101424.34
2023-01-29T20:56:16.598Z,101412.66
2023-01-29T20:58:45.151Z,101407.44
2023-01-29T21:01:16.595Z,101403.63
2023-01-29T21:03:44.922Z,101394.94
2023-01-29T21:06:13.873Z,101406.69
2023-01-29T21:08:42.274Z,101391.63
2023-01-29T21:11:10.754Z,101390.94
2023-01-29T21:13:38.547Z,101372.91
2023-01-29T21:16:06.908Z,101382.41
2023-01-29T21:18:34.533Z,101387.56
2023-01-29T21:21:02.189Z,101383.22
2023-01-29T21:23:30.056Z,101360.13
2023-01-29T21:26:06.031Z,101322.56
2023-01-29T21:28:34.401Z,101334.53
2023-01-29T21:31:04.606Z,101355.53
2023-01-29T21:33:33.666Z,101359.06
2023-01-29T21:36:02.029Z,101341.81
2023-01-29T21:38:29.571Z,101336.69
2023-01-29T21:41:02.483Z,101330.84
2023-01-29T21:43:30.711Z,101317.34
2023-01-29T21:46:03.831Z,101331.28
2023-01-29T21:48:31.577Z,101323.69
2023-01-29T21:50:59.274Z,101311.34
2023-01-29T21:53:26.945Z,101332.28
2023-01-29T21:56:01.194Z,101316.97
2023-01-29T21:58:29.866Z,101320.41
2023-01-29T22:01:35.659Z,101320.69
2023-01-29T22:03:47.249Z,101305.34
2023-01-29T22:06:15.778Z,101313.34
2023-01-29T22:08:43.403Z,101318.69
2023-01-29T22:11:11.359Z,101313.88
2023-01-29T22:13:39.087Z,101312.19
2023-01-29T22:16:07.408Z,101300.50
2023-01-29T22:18:35.163Z,101290.38
2023-01-29T22:21:02.957Z,101303.41
2023-01-29T22:23:32.262Z,101295.94
2023-01-29T22:26:08.883Z,101282.28
2023-01-29T22:28:36.828Z,101267.81
2023-01-29T22:31:05.462Z,101262.69
2023-01-29T22:33:33.579Z,101273.28
2023-01-29T22:36:01.445Z,101259.47
2023-01-29T22:38:29.604Z,101248.94
2023-01-29T22:40:59.662Z,101240.41
2023-01-29T22:43:27.415Z,101246.63
2023-01-29T22:45:56.326Z,101230.00
2023-01-29T22:48:24.131Z,101216.31
2023-01-29T22:51:11.884Z,101226.75
2023-01-29T22:53:54.727Z,101199.66
2023-01-29T22:56:26.170Z,101215.31
2023-01-29T22:58:59.203Z,101209.16
2023-01-29T23:01:30.034Z,101202.22
2023-01-29T23:03:57.959Z,101207.16
2023-01-29T23:06:25.649Z,101202.34
2023-01-29T23:08:53.454Z,101195.13
2023-01-29T23:11:23.404Z,101177.78
2023-01-29T23:13:54.275Z,101200.03
2023-01-29T23:16:27.985Z,101186.44
2023-01-29T23:18:57.007Z,101170.97
2023-01-29T23:21:26.153Z,101171.31
2023-01-29T23:24:01.296Z,101166.94
2023-01-29T23:26:48.040Z,101157.72
2023-01-29T23:29:15.919Z,101161.63
2023-01-29T23:31:43.632Z,101143.81
2023-01-29T23:34:11.411Z,101135.91
2023-01-29T23:36:39.025Z,101140.91
2023-01-29T23:39:06.931Z,101119.06
2023-01-29T23:41:34.663Z,101134.31
2023-01-29T23:44:02.382Z,101131.69
2023-01-29T23:46:30.479Z,101136.34
2023-01-29T23:48:58.430Z,101117.69
2023-01-29T23:51:26.198Z,101121.38
2023-01-29T23:53:54.019Z,101112.81
2023-01-29T23:56:21.840Z,101095.50
2023-01-29T23:58:56.944Z,101096.81
